sensor_id;sensor_type;location;lat;lon;timestamp;P1;durP1;ratioP1;P2;durP2;ratioP2
57327;SDS011;43162;51.040;18.244;2022-11-25T00:00:43;102.20;;;36.70;;
57327;SDS011;43162;51.040;18.244;2022-11-25T00:03:08;105.60;;;35.20;;
57327;SDS011;43162;51.040;18.244;2022-11-25T00:05:34;112.30;;;40.40;;
57327;SDS011;43162;51.040;18.244;2022-11-25T00:07:59;95.30;;;34.60;;
57327;SDS011;43162;51.040;18.244;2022-11-25T00:10:25;108.70;;;37.00;;
57327;SDS011;43162;51.040;18.244;2022-11-25T00:12:50;113.60;;;36.40;;
57327;SDS011;43162;51.040;18.244;2022-11-25T00:15:15;99.30;;;35.90;;
57327;SDS011;43162;51.040;18.244;2022-11-25T00:17:41;97.40;;;34.40;;
57327;SDS011;43162;51.040;18.244;2022-11-25T00:20:06;84.90;;;30.60;;
57327;SDS011;43162;51.040;18.244;2022-11-25T00:22:32;97.60;;;35.40;;
57327;SDS011;43162;51.040;18.244;2022-11-25T00:24:58;106.00;;;37.80;;
57327;SDS011;43162;51.040;18.244;2022-11-25T00:27:24;104.90;;;37.00;;
57327;SDS011;43162;51.040;18.244;2022-11-25T00:29:49;99.40;;;36.30;;
57327;SDS011;43162;51.040;18.244;2022-11-25T00:32:14;94.50;;;32.00;;
57327;SDS011;43162;51.040;18.244;2022-11-25T00:34:40;95.80;;;36.30;;
57327;SDS011;43162;51.040;18.244;2022-11-25T00:37:05;97.10;;;35.90;;
57327;SDS011;43162;51.040;18.244;2022-11-25T00:39:31;104.00;;;34.60;;
57327;SDS011;43162;51.040;18.244;2022-11-25T00:41:56;99.30;;;36.80;;
57327;SDS011;43162;51.040;18.244;2022-11-25T00:44:40;101.60;;;35.80;;
57327;SDS011;43162;51.040;18.244;2022-11-25T00:47:07;89.00;;;33.90;;
57327;SDS011;43162;51.040;18.244;2022-11-25T00:49:33;104.80;;;38.50;;
57327;SDS011;43162;51.040;18.244;2022-11-25T00:51:59;113.80;;;35.50;;
57327;SDS011;43162;51.040;18.244;2022-11-25T00:54:25;104.40;;;37.10;;
57327;SDS011;43162;51.040;18.244;2022-11-25T00:56:50;96.00;;;32.70;;
57327;SDS011;43162;51.040;18.244;2022-11-25T00:59:16;92.20;;;33.60;;
57327;SDS011;43162;51.040;18.244;2022-11-25T01:01:42;116.00;;;42.50;;
57327;SDS011;43162;51.040;18.244;2022-11-25T01:04:07;113.60;;;41.80;;
57327;SDS011;43162;51.040;18.244;2022-11-25T01:06:33;106.70;;;40.40;;
57327;SDS011;43162;51.040;18.244;2022-11-25T01:08:59;101.00;;;39.00;;
57327;SDS011;43162;51.040;18.244;2022-11-25T01:11:24;93.40;;;35.60;;
57327;SDS011;43162;51.040;18.244;2022-11-25T01:13:50;117.30;;;40.60;;
57327;SDS011;43162;51.040;18.244;2022-11-25T01:16:18;105.80;;;39.20;;
57327;SDS011;43162;51.040;18.244;2022-11-25T01:18:44;102.00;;;37.80;;
57327;SDS011;43162;51.040;18.244;2022-11-25T01:21:10;103.60;;;37.70;;
57327;SDS011;43162;51.040;18.244;2022-11-25T01:23:37;96.30;;;36.30;;
57327;SDS011;43162;51.040;18.244;2022-11-25T01:26:03;106.70;;;33.90;;
57327;SDS011;43162;51.040;18.244;2022-11-25T01:28:29;109.00;;;38.50;;
57327;SDS011;43162;51.040;18.244;2022-11-25T01:31:10;97.50;;;33.70;;
57327;SDS011;43162;51.040;18.244;2022-11-25T01:33:35;91.00;;;33.80;;
57327;SDS011;43162;51.040;18.244;2022-11-25T01:36:05;96.10;;;31.80;;
57327;SDS011;43162;51.040;18.244;2022-11-25T01:38:31;109.20;;;38.20;;
57327;SDS011;43162;51.040;18.244;2022-11-25T01:40:57;98.40;;;36.60;;
57327;SDS011;43162;51.040;18.244;2022-11-25T01:43:23;109.40;;;37.80;;
57327;SDS011;43162;51.040;18.244;2022-11-25T01:45:49;104.80;;;35.70;;
57327;SDS011;43162;51.040;18.244;2022-11-25T01:50:40;101.90;;;37.00;;
57327;SDS011;43162;51.040;18.244;2022-11-25T01:53:06;116.10;;;39.50;;
57327;SDS011;43162;51.040;18.244;2022-11-25T01:55:34;86.90;;;33.80;;
57327;SDS011;43162;51.040;18.244;2022-11-25T01:58:05;128.10;;;45.10;;
57327;SDS011;43162;51.040;18.244;2022-11-25T02:00:31;101.00;;;35.70;;
57327;SDS011;43162;51.040;18.244;2022-11-25T02:02:57;90.60;;;36.90;;
57327;SDS011;43162;51.040;18.244;2022-11-25T02:05:34;113.00;;;37.70;;
57327;SDS011;43162;51.040;18.244;2022-11-25T02:08:00;110.60;;;36.60;;
57327;SDS011;43162;51.040;18.244;2022-11-25T02:10:27;103.30;;;34.40;;
57327;SDS011;43162;51.040;18.244;2022-11-25T02:12:54;105.60;;;37.10;;
57327;SDS011;43162;51.040;18.244;2022-11-25T02:15:19;98.40;;;35.10;;
57327;SDS011;43162;51.040;18.244;2022-11-25T02:17:45;110.60;;;37.20;;
57327;SDS011;43162;51.040;18.244;2022-11-25T02:20:12;99.50;;;35.90;;
57327;SDS011;43162;51.040;18.244;2022-11-25T02:25:23;106.50;;;37.30;;
57327;SDS011;43162;51.040;18.244;2022-11-25T02:27:56;110.80;;;34.00;;
57327;SDS011;43162;51.040;18.244;2022-11-25T02:30:23;105.40;;;39.40;;
57327;SDS011;43162;51.040;18.244;2022-11-25T02:32:48;96.10;;;34.60;;
57327;SDS011;43162;51.040;18.244;2022-11-25T02:35:30;108.30;;;37.80;;
57327;SDS011;43162;51.040;18.244;2022-11-25T02:38:05;93.50;;;35.50;;
57327;SDS011;43162;51.040;18.244;2022-11-25T02:40:32;107.50;;;34.80;;
57327;SDS011;43162;51.040;18.244;2022-11-25T02:43:02;95.10;;;32.30;;
57327;SDS011;43162;51.040;18.244;2022-11-25T02:45:36;96.00;;;37.40;;
57327;SDS011;43162;51.040;18.244;2022-11-25T02:48:05;101.60;;;36.90;;
57327;SDS011;43162;51.040;18.244;2022-11-25T02:50:30;99.40;;;35.70;;
57327;SDS011;43162;51.040;18.244;2022-11-25T02:52:56;95.90;;;35.80;;
57327;SDS011;43162;51.040;18.244;2022-11-25T02:55:22;104.30;;;37.60;;
57327;SDS011;43162;51.040;18.244;2022-11-25T02:57:47;104.60;;;37.20;;
57327;SDS011;43162;51.040;18.244;2022-11-25T03:00:13;94.50;;;37.80;;
57327;SDS011;43162;51.040;18.244;2022-11-25T03:02:39;98.40;;;34.30;;
57327;SDS011;43162;51.040;18.244;2022-11-25T03:05:04;95.10;;;33.10;;
57327;SDS011;43162;51.040;18.244;2022-11-25T03:07:30;99.00;;;36.10;;
57327;SDS011;43162;51.040;18.244;2022-11-25T03:09:55;98.30;;;37.30;;
57327;SDS011;43162;51.040;18.244;2022-11-25T03:12:21;113.60;;;38.80;;
57327;SDS011;43162;51.040;18.244;2022-11-25T03:14:47;117.80;;;41.70;;
57327;SDS011;43162;51.040;18.244;2022-11-25T03:17:12;115.90;;;43.30;;
57327;SDS011;43162;51.040;18.244;2022-11-25T03:19:38;101.70;;;38.30;;
57327;SDS011;43162;51.040;18.244;2022-11-25T03:22:03;97.80;;;36.10;;
57327;SDS011;43162;51.040;18.244;2022-11-25T03:24:29;97.70;;;38.70;;
57327;SDS011;43162;51.040;18.244;2022-11-25T03:26:54;100.40;;;34.80;;
57327;SDS011;43162;51.040;18.244;2022-11-25T03:29:20;105.70;;;39.90;;
57327;SDS011;43162;51.040;18.244;2022-11-25T03:31:45;106.80;;;38.50;;
57327;SDS011;43162;51.040;18.244;2022-11-25T03:34:11;114.10;;;38.70;;
57327;SDS011;43162;51.040;18.244;2022-11-25T03:36:36;113.60;;;39.10;;
57327;SDS011;43162;51.040;18.244;2022-11-25T03:39:03;115.90;;;40.70;;
57327;SDS011;43162;51.040;18.244;2022-11-25T03:41:28;108.60;;;39.90;;
57327;SDS011;43162;51.040;18.244;2022-11-25T03:43:54;106.80;;;39.70;;
57327;SDS011;43162;51.040;18.244;2022-11-25T03:46:19;100.80;;;39.10;;
57327;SDS011;43162;51.040;18.244;2022-11-25T03:48:45;109.60;;;36.60;;
57327;SDS011;43162;51.040;18.244;2022-11-25T03:51:10;111.20;;;40.30;;
57327;SDS011;43162;51.040;18.244;2022-11-25T03:53:36;111.90;;;39.20;;
57327;SDS011;43162;51.040;18.244;2022-11-25T03:56:01;112.60;;;38.20;;
57327;SDS011;43162;51.040;18.244;2022-11-25T03:58:27;114.10;;;40.60;;
57327;SDS011;43162;51.040;18.244;2022-11-25T04:00:52;103.60;;;38.70;;
57327;SDS011;43162;51.040;18.244;2022-11-25T04:03:17;119.20;;;38.90;;
57327;SDS011;43162;51.040;18.244;2022-11-25T04:05:43;124.20;;;38.60;;
57327;SDS011;43162;51.040;18.244;2022-11-25T04:08:08;103.80;;;36.90;;
57327;SDS011;43162;51.040;18.244;2022-11-25T04:10:34;111.40;;;38.90;;
57327;SDS011;43162;51.040;18.244;2022-11-25T04:12:59;129.40;;;42.20;;
57327;SDS011;43162;51.040;18.244;2022-11-25T04:15:25;114.50;;;40.60;;
57327;SDS011;43162;51.040;18.244;2022-11-25T04:17:50;110.80;;;38.80;;
57327;SDS011;43162;51.040;18.244;2022-11-25T04:20:16;120.60;;;36.10;;
57327;SDS011;43162;51.040;18.244;2022-11-25T04:22:41;131.30;;;38.90;;
57327;SDS011;43162;51.040;18.244;2022-11-25T04:25:07;139.40;;;43.40;;
57327;SDS011;43162;51.040;18.244;2022-11-25T04:27:33;121.30;;;38.00;;
57327;SDS011;43162;51.040;18.244;2022-11-25T04:29:58;113.80;;;38.60;;
57327;SDS011;43162;51.040;18.244;2022-11-25T04:32:24;136.30;;;41.70;;
57327;SDS011;43162;51.040;18.244;2022-11-25T04:34:50;140.90;;;42.20;;
57327;SDS011;43162;51.040;18.244;2022-11-25T04:37:15;169.30;;;53.20;;
57327;SDS011;43162;51.040;18.244;2022-11-25T04:39:41;143.70;;;44.40;;
57327;SDS011;43162;51.040;18.244;2022-11-25T04:42:06;134.50;;;40.10;;
57327;SDS011;43162;51.040;18.244;2022-11-25T04:44:50;121.90;;;41.50;;
57327;SDS011;43162;51.040;18.244;2022-11-25T04:47:16;133.40;;;40.00;;
57327;SDS011;43162;51.040;18.244;2022-11-25T04:49:41;128.80;;;39.10;;
57327;SDS011;43162;51.040;18.244;2022-11-25T04:52:06;125.60;;;39.40;;
57327;SDS011;43162;51.040;18.244;2022-11-25T04:54:32;138.20;;;43.90;;
57327;SDS011;43162;51.040;18.244;2022-11-25T04:56:57;116.60;;;39.40;;
57327;SDS011;43162;51.040;18.244;2022-11-25T04:59:23;137.50;;;38.50;;
57327;SDS011;43162;51.040;18.244;2022-11-25T05:04:29;111.80;;;35.40;;
57327;SDS011;43162;51.040;18.244;2022-11-25T05:06:54;112.40;;;34.60;;
57327;SDS011;43162;51.040;18.244;2022-11-25T05:09:20;158.80;;;40.90;;
57327;SDS011;43162;51.040;18.244;2022-11-25T05:11:45;122.60;;;38.50;;
57327;SDS011;43162;51.040;18.244;2022-11-25T05:14:10;124.20;;;40.90;;
57327;SDS011;43162;51.040;18.244;2022-11-25T05:16:36;138.90;;;42.30;;
57327;SDS011;43162;51.040;18.244;2022-11-25T05:19:01;166.50;;;48.30;;
57327;SDS011;43162;51.040;18.244;2022-11-25T05:21:27;169.90;;;47.60;;
57327;SDS011;43162;51.040;18.244;2022-11-25T05:23:55;185.90;;;55.80;;
57327;SDS011;43162;51.040;18.244;2022-11-25T05:26:20;243.10;;;69.90;;
57327;SDS011;43162;51.040;18.244;2022-11-25T05:28:46;170.50;;;54.40;;
57327;SDS011;43162;51.040;18.244;2022-11-25T05:31:11;143.40;;;42.60;;
57327;SDS011;43162;51.040;18.244;2022-11-25T05:33:37;244.80;;;62.30;;
57327;SDS011;43162;51.040;18.244;2022-11-25T05:36:03;177.50;;;44.80;;
57327;SDS011;43162;51.040;18.244;2022-11-25T05:38:29;149.10;;;40.20;;
57327;SDS011;43162;51.040;18.244;2022-11-25T05:41:01;154.10;;;42.90;;
57327;SDS011;43162;51.040;18.244;2022-11-25T05:43:27;155.50;;;44.50;;
57327;SDS011;43162;51.040;18.244;2022-11-25T05:45:52;150.60;;;45.90;;
57327;SDS011;43162;51.040;18.244;2022-11-25T05:48:18;166.50;;;51.30;;
57327;SDS011;43162;51.040;18.244;2022-11-25T05:50:44;161.50;;;49.20;;
57327;SDS011;43162;51.040;18.244;2022-11-25T05:53:09;161.70;;;52.90;;
57327;SDS011;43162;51.040;18.244;2022-11-25T05:55:35;134.30;;;41.90;;
57327;SDS011;43162;51.040;18.244;2022-11-25T05:58:02;163.40;;;45.50;;
57327;SDS011;43162;51.040;18.244;2022-11-25T06:00:29;163.10;;;43.10;;
57327;SDS011;43162;51.040;18.244;2022-11-25T06:02:54;195.40;;;48.10;;
57327;SDS011;43162;51.040;18.244;2022-11-25T06:05:20;204.00;;;47.20;;
57327;SDS011;43162;51.040;18.244;2022-11-25T06:07:45;167.50;;;45.20;;
57327;SDS011;43162;51.040;18.244;2022-11-25T06:10:11;145.40;;;39.30;;
57327;SDS011;43162;51.040;18.244;2022-11-25T06:12:36;175.40;;;47.90;;
57327;SDS011;43162;51.040;18.244;2022-11-25T06:15:02;179.60;;;51.60;;
57327;SDS011;43162;51.040;18.244;2022-11-25T06:17:28;220.70;;;56.10;;
57327;SDS011;43162;51.040;18.244;2022-11-25T06:19:54;209.90;;;60.10;;
57327;SDS011;43162;51.040;18.244;2022-11-25T06:22:19;217.50;;;58.80;;
57327;SDS011;43162;51.040;18.244;2022-11-25T06:24:45;208.60;;;56.70;;
57327;SDS011;43162;51.040;18.244;2022-11-25T06:27:10;205.80;;;55.70;;
57327;SDS011;43162;51.040;18.244;2022-11-25T06:29:35;194.90;;;54.80;;
57327;SDS011;43162;51.040;18.244;2022-11-25T06:32:01;184.40;;;54.40;;
57327;SDS011;43162;51.040;18.244;2022-11-25T06:34:26;176.00;;;48.90;;
57327;SDS011;43162;51.040;18.244;2022-11-25T06:36:52;129.80;;;37.30;;
57327;SDS011;43162;51.040;18.244;2022-11-25T06:39:18;181.10;;;50.70;;
57327;SDS011;43162;51.040;18.244;2022-11-25T06:41:43;170.80;;;52.70;;
57327;SDS011;43162;51.040;18.244;2022-11-25T06:44:09;155.70;;;43.10;;
57327;SDS011;43162;51.040;18.244;2022-11-25T06:46:38;118.40;;;36.80;;
57327;SDS011;43162;51.040;18.244;2022-11-25T06:49:04;141.90;;;40.10;;
57327;SDS011;43162;51.040;18.244;2022-11-25T06:51:29;127.70;;;34.60;;
57327;SDS011;43162;51.040;18.244;2022-11-25T06:53:55;113.30;;;33.40;;
57327;SDS011;43162;51.040;18.244;2022-11-25T06:56:21;140.60;;;36.00;;
57327;SDS011;43162;51.040;18.244;2022-11-25T06:58:47;134.70;;;36.30;;
57327;SDS011;43162;51.040;18.244;2022-11-25T07:01:20;171.40;;;42.40;;
57327;SDS011;43162;51.040;18.244;2022-11-25T07:03:46;132.90;;;35.10;;
57327;SDS011;43162;51.040;18.244;2022-11-25T07:06:13;160.80;;;42.70;;
57327;SDS011;43162;51.040;18.244;2022-11-25T07:08:39;135.10;;;36.60;;
57327;SDS011;43162;51.040;18.244;2022-11-25T07:11:05;165.30;;;43.40;;
57327;SDS011;43162;51.040;18.244;2022-11-25T07:13:31;134.90;;;37.00;;
57327;SDS011;43162;51.040;18.244;2022-11-25T07:16:01;118.90;;;33.70;;
57327;SDS011;43162;51.040;18.244;2022-11-25T07:20:53;94.70;;;27.10;;
57327;SDS011;43162;51.040;18.244;2022-11-25T07:23:19;124.40;;;35.90;;
57327;SDS011;43162;51.040;18.244;2022-11-25T07:25:44;107.70;;;29.00;;
57327;SDS011;43162;51.040;18.244;2022-11-25T07:28:10;110.90;;;29.00;;
57327;SDS011;43162;51.040;18.244;2022-11-25T07:30:35;98.40;;;27.60;;
57327;SDS011;43162;51.040;18.244;2022-11-25T07:33:01;122.30;;;31.10;;
57327;SDS011;43162;51.040;18.244;2022-11-25T07:35:26;112.90;;;33.70;;
57327;SDS011;43162;51.040;18.244;2022-11-25T07:37:52;124.90;;;35.30;;
57327;SDS011;43162;51.040;18.244;2022-11-25T07:40:17;99.50;;;32.50;;
57327;SDS011;43162;51.040;18.244;2022-11-25T07:42:43;100.20;;;31.50;;
57327;SDS011;43162;51.040;18.244;2022-11-25T07:45:10;109.40;;;32.00;;
57327;SDS011;43162;51.040;18.244;2022-11-25T07:47:36;106.30;;;30.70;;
57327;SDS011;43162;51.040;18.244;2022-11-25T07:50:02;114.80;;;31.30;;
57327;SDS011;43162;51.040;18.244;2022-11-25T07:52:28;113.60;;;34.20;;
57327;SDS011;43162;51.040;18.244;2022-11-25T07:54:53;92.90;;;28.80;;
57327;SDS011;43162;51.040;18.244;2022-11-25T07:57:19;96.40;;;28.20;;
57327;SDS011;43162;51.040;18.244;2022-11-25T07:59:45;112.60;;;29.50;;
57327;SDS011;43162;51.040;18.244;2022-11-25T08:02:11;107.00;;;29.10;;
57327;SDS011;43162;51.040;18.244;2022-11-25T08:04:36;80.00;;;26.90;;
57327;SDS011;43162;51.040;18.244;2022-11-25T08:07:02;90.20;;;31.80;;
57327;SDS011;43162;51.040;18.244;2022-11-25T08:09:27;127.90;;;35.10;;
57327;SDS011;43162;51.040;18.244;2022-11-25T08:11:52;105.30;;;30.50;;
57327;SDS011;43162;51.040;18.244;2022-11-25T08:14:18;100.50;;;30.20;;
57327;SDS011;43162;51.040;18.244;2022-11-25T08:16:44;131.70;;;35.80;;
57327;SDS011;43162;51.040;18.244;2022-11-25T08:19:11;101.00;;;29.00;;
57327;SDS011;43162;51.040;18.244;2022-11-25T08:21:38;107.70;;;29.30;;
57327;SDS011;43162;51.040;18.244;2022-11-25T08:24:03;90.80;;;29.00;;
57327;SDS011;43162;51.040;18.244;2022-11-25T08:26:30;94.30;;;25.70;;
57327;SDS011;43162;51.040;18.244;2022-11-25T08:28:57;101.90;;;31.50;;
57327;SDS011;43162;51.040;18.244;2022-11-25T08:31:27;96.10;;;29.40;;
57327;SDS011;43162;51.040;18.244;2022-11-25T08:33:54;74.90;;;25.10;;
57327;SDS011;43162;51.040;18.244;2022-11-25T08:36:20;87.90;;;22.30;;
57327;SDS011;43162;51.040;18.244;2022-11-25T08:38:46;71.80;;;25.20;;
57327;SDS011;43162;51.040;18.244;2022-11-25T08:41:16;93.80;;;22.60;;
57327;SDS011;43162;51.040;18.244;2022-11-25T08:43:42;77.80;;;23.00;;
57327;SDS011;43162;51.040;18.244;2022-11-25T08:46:13;107.10;;;31.20;;
57327;SDS011;43162;51.040;18.244;2022-11-25T08:48:38;103.70;;;26.90;;
57327;SDS011;43162;51.040;18.244;2022-11-25T08:51:06;93.60;;;27.60;;
57327;SDS011;43162;51.040;18.244;2022-11-25T08:53:32;123.20;;;30.70;;
57327;SDS011;43162;51.040;18.244;2022-11-25T08:55:57;85.20;;;26.30;;
57327;SDS011;43162;51.040;18.244;2022-11-25T08:58:23;101.40;;;26.90;;
57327;SDS011;43162;51.040;18.244;2022-11-25T09:00:48;88.10;;;27.00;;
57327;SDS011;43162;51.040;18.244;2022-11-25T09:03:14;93.90;;;24.40;;
57327;SDS011;43162;51.040;18.244;2022-11-25T09:05:40;93.80;;;25.40;;
57327;SDS011;43162;51.040;18.244;2022-11-25T09:08:06;85.10;;;25.70;;
57327;SDS011;43162;51.040;18.244;2022-11-25T09:10:32;99.70;;;27.60;;
57327;SDS011;43162;51.040;18.244;2022-11-25T09:12:58;91.70;;;28.30;;
57327;SDS011;43162;51.040;18.244;2022-11-25T09:15:24;93.10;;;26.30;;
57327;SDS011;43162;51.040;18.244;2022-11-25T09:18:00;111.00;;;29.00;;
57327;SDS011;43162;51.040;18.244;2022-11-25T09:20:26;90.40;;;28.20;;
57327;SDS011;43162;51.040;18.244;2022-11-25T09:22:52;85.60;;;27.60;;
57327;SDS011;43162;51.040;18.244;2022-11-25T09:25:17;97.60;;;31.00;;
57327;SDS011;43162;51.040;18.244;2022-11-25T09:27:43;84.90;;;29.40;;
57327;SDS011;43162;51.040;18.244;2022-11-25T09:30:09;85.60;;;29.30;;
57327;SDS011;43162;51.040;18.244;2022-11-25T09:32:34;85.30;;;31.50;;
57327;SDS011;43162;51.040;18.244;2022-11-25T09:35:00;69.70;;;26.30;;
57327;SDS011;43162;51.040;18.244;2022-11-25T09:37:25;68.30;;;25.50;;
57327;SDS011;43162;51.040;18.244;2022-11-25T09:39:51;63.10;;;22.40;;
57327;SDS011;43162;51.040;18.244;2022-11-25T09:45:24;99.30;;;34.00;;
57327;SDS011;43162;51.040;18.244;2022-11-25T09:50:58;67.40;;;29.90;;
57327;SDS011;43162;51.040;18.244;2022-11-25T09:53:32;69.90;;;29.00;;
57327;SDS011;43162;51.040;18.244;2022-11-25T09:56:03;66.70;;;29.20;;
57327;SDS011;43162;51.040;18.244;2022-11-25T10:01:18;63.10;;;29.10;;
57327;SDS011;43162;51.040;18.244;2022-11-25T10:04:04;44.00;;;21.80;;
57327;SDS011;43162;51.040;18.244;2022-11-25T10:06:33;52.70;;;25.80;;
57327;SDS011;43162;51.040;18.244;2022-11-25T10:09:02;55.00;;;26.10;;
57327;SDS011;43162;51.040;18.244;2022-11-25T10:21:49;47.30;;;22.20;;
57327;SDS011;43162;51.040;18.244;2022-11-25T10:24:15;42.30;;;20.40;;
57327;SDS011;43162;51.040;18.244;2022-11-25T10:26:45;41.00;;;19.60;;
57327;SDS011;43162;51.040;18.244;2022-11-25T10:31:38;49.70;;;23.10;;
57327;SDS011;43162;51.040;18.244;2022-11-25T10:34:17;44.20;;;21.20;;
57327;SDS011;43162;51.040;18.244;2022-11-25T10:36:45;50.70;;;23.30;;
57327;SDS011;43162;51.040;18.244;2022-11-25T10:39:18;50.60;;;22.90;;
57327;SDS011;43162;51.040;18.244;2022-11-25T10:44:17;46.90;;;22.10;;
57327;SDS011;43162;51.040;18.244;2022-11-25T10:46:51;51.10;;;22.60;;
57327;SDS011;43162;51.040;18.244;2022-11-25T10:49:27;49.20;;;22.50;;
57327;SDS011;43162;51.040;18.244;2022-11-25T10:51:54;44.80;;;21.40;;
57327;SDS011;43162;51.040;18.244;2022-11-25T10:54:27;50.90;;;22.80;;
57327;SDS011;43162;51.040;18.244;2022-11-25T10:57:00;61.50;;;25.50;;
57327;SDS011;43162;51.040;18.244;2022-11-25T10:59:33;46.00;;;18.50;;
57327;SDS011;43162;51.040;18.244;2022-11-25T11:04:36;58.60;;;24.10;;
57327;SDS011;43162;51.040;18.244;2022-11-25T11:07:13;48.90;;;22.30;;
57327;SDS011;43162;51.040;18.244;2022-11-25T11:09:38;61.60;;;26.80;;
57327;SDS011;43162;51.040;18.244;2022-11-25T11:12:26;52.90;;;23.10;;
57327;SDS011;43162;51.040;18.244;2022-11-25T11:14:52;64.60;;;27.80;;
57327;SDS011;43162;51.040;18.244;2022-11-25T11:17:39;60.00;;;24.90;;
57327;SDS011;43162;51.040;18.244;2022-11-25T11:22:33;54.80;;;21.50;;
57327;SDS011;43162;51.040;18.244;2022-11-25T11:25:05;66.10;;;25.20;;
57327;SDS011;43162;51.040;18.244;2022-11-25T11:27:31;61.40;;;26.40;;
57327;SDS011;43162;51.040;18.244;2022-11-25T11:30:07;62.30;;;22.10;;
57327;SDS011;43162;51.040;18.244;2022-11-25T11:32:33;59.60;;;24.00;;
57327;SDS011;43162;51.040;18.244;2022-11-25T11:35:05;58.50;;;25.90;;
57327;SDS011;43162;51.040;18.244;2022-11-25T11:37:38;60.70;;;24.30;;
57327;SDS011;43162;51.040;18.244;2022-11-25T11:48:09;49.00;;;23.40;;
57327;SDS011;43162;51.040;18.244;2022-11-25T11:50:39;51.40;;;24.10;;
57327;SDS011;43162;51.040;18.244;2022-11-25T11:53:18;49.00;;;21.20;;
57327;SDS011;43162;51.040;18.244;2022-11-25T11:58:21;55.80;;;21.30;;
57327;SDS011;43162;51.040;18.244;2022-11-25T12:00:59;67.60;;;25.30;;
57327;SDS011;43162;51.040;18.244;2022-11-25T12:03:26;56.50;;;21.40;;
57327;SDS011;43162;51.040;18.244;2022-11-25T12:05:53;75.70;;;26.40;;
57327;SDS011;43162;51.040;18.244;2022-11-25T12:10:50;67.10;;;27.20;;
57327;SDS011;43162;51.040;18.244;2022-11-25T12:16:11;73.40;;;27.40;;
57327;SDS011;43162;51.040;18.244;2022-11-25T12:18:44;75.70;;;27.20;;
57327;SDS011;43162;51.040;18.244;2022-11-25T12:21:12;68.90;;;27.50;;
57327;SDS011;43162;51.040;18.244;2022-11-25T12:23:47;67.80;;;27.10;;
57327;SDS011;43162;51.040;18.244;2022-11-25T12:26:22;58.80;;;25.20;;
57327;SDS011;43162;51.040;18.244;2022-11-25T12:28:51;61.20;;;25.70;;
57327;SDS011;43162;51.040;18.244;2022-11-25T12:36:44;54.50;;;22.20;;
57327;SDS011;43162;51.040;18.244;2022-11-25T12:39:23;57.80;;;24.00;;
57327;SDS011;43162;51.040;18.244;2022-11-25T12:41:53;51.70;;;22.50;;
57327;SDS011;43162;51.040;18.244;2022-11-25T12:44:21;58.60;;;24.90;;
57327;SDS011;43162;51.040;18.244;2022-11-25T12:46:49;60.30;;;24.70;;
57327;SDS011;43162;51.040;18.244;2022-11-25T12:59:21;70.60;;;28.90;;
57327;SDS011;43162;51.040;18.244;2022-11-25T13:17:19;79.20;;;31.20;;
57327;SDS011;43162;51.040;18.244;2022-11-25T13:19:46;71.40;;;30.80;;
57327;SDS011;43162;51.040;18.244;2022-11-25T13:24:47;76.00;;;31.80;;
57327;SDS011;43162;51.040;18.244;2022-11-25T13:27:29;71.30;;;29.40;;
57327;SDS011;43162;51.040;18.244;2022-11-25T13:29:55;77.30;;;31.40;;
57327;SDS011;43162;51.040;18.244;2022-11-25T13:32:25;55.30;;;27.90;;
57327;SDS011;43162;51.040;18.244;2022-11-25T13:35:25;72.30;;;30.10;;
57327;SDS011;43162;51.040;18.244;2022-11-25T13:37:37;79.40;;;36.00;;
57327;SDS011;43162;51.040;18.244;2022-11-25T13:42:50;73.90;;;31.90;;
57327;SDS011;43162;51.040;18.244;2022-11-25T13:47:54;65.40;;;29.10;;
57327;SDS011;43162;51.040;18.244;2022-11-25T13:50:28;64.80;;;30.00;;
57327;SDS011;43162;51.040;18.244;2022-11-25T13:52:57;63.70;;;29.80;;
57327;SDS011;43162;51.040;18.244;2022-11-25T13:55:27;75.10;;;34.10;;
57327;SDS011;43162;51.040;18.244;2022-11-25T13:58:06;78.70;;;36.40;;
57327;SDS011;43162;51.040;18.244;2022-11-25T14:05:45;77.70;;;34.80;;
57327;SDS011;43162;51.040;18.244;2022-11-25T14:08:14;71.60;;;32.10;;
57327;SDS011;43162;51.040;18.244;2022-11-25T14:23:22;110.10;;;42.10;;
57327;SDS011;43162;51.040;18.244;2022-11-25T14:25:54;110.50;;;42.10;;
57327;SDS011;43162;51.040;18.244;2022-11-25T14:30:51;119.10;;;47.60;;
57327;SDS011;43162;51.040;18.244;2022-11-25T14:33:18;121.40;;;48.30;;
57327;SDS011;43162;51.040;18.244;2022-11-25T14:35:52;125.00;;;50.90;;
57327;SDS011;43162;51.040;18.244;2022-11-25T14:38:19;107.00;;;47.20;;
57327;SDS011;43162;51.040;18.244;2022-11-25T14:40:48;117.60;;;45.00;;
57327;SDS011;43162;51.040;18.244;2022-11-25T14:43:16;111.40;;;46.10;;
57327;SDS011;43162;51.040;18.244;2022-11-25T14:45:44;98.40;;;42.30;;
57327;SDS011;43162;51.040;18.244;2022-11-25T14:48:13;105.60;;;45.80;;
57327;SDS011;43162;51.040;18.244;2022-11-25T14:50:41;92.50;;;39.90;;
57327;SDS011;43162;51.040;18.244;2022-11-25T14:53:17;100.70;;;41.20;;
57327;SDS011;43162;51.040;18.244;2022-11-25T14:55:43;128.50;;;46.50;;
57327;SDS011;43162;51.040;18.244;2022-11-25T14:58:11;147.40;;;51.20;;
57327;SDS011;43162;51.040;18.244;2022-11-25T15:00:48;142.70;;;55.40;;
57327;SDS011;43162;51.040;18.244;2022-11-25T15:03:15;125.70;;;53.90;;
57327;SDS011;43162;51.040;18.244;2022-11-25T15:05:42;114.20;;;52.50;;
57327;SDS011;43162;51.040;18.244;2022-11-25T15:08:09;95.00;;;47.20;;
57327;SDS011;43162;51.040;18.244;2022-11-25T15:10:37;76.00;;;39.40;;
57327;SDS011;43162;51.040;18.244;2022-11-25T15:13:11;95.00;;;40.80;;
57327;SDS011;43162;51.040;18.244;2022-11-25T15:15:37;86.80;;;39.40;;
57327;SDS011;43162;51.040;18.244;2022-11-25T15:18:05;78.30;;;33.70;;
57327;SDS011;43162;51.040;18.244;2022-11-25T15:20:31;59.70;;;30.60;;
57327;SDS011;43162;51.040;18.244;2022-11-25T15:23:00;68.20;;;33.80;;
57327;SDS011;43162;51.040;18.244;2022-11-25T15:25:29;63.20;;;30.20;;
57327;SDS011;43162;51.040;18.244;2022-11-25T15:27:54;66.30;;;31.70;;
57327;SDS011;43162;51.040;18.244;2022-11-25T15:30:24;66.30;;;32.10;;
57327;SDS011;43162;51.040;18.244;2022-11-25T15:32:50;65.00;;;33.70;;
57327;SDS011;43162;51.040;18.244;2022-11-25T15:35:18;67.60;;;31.10;;
57327;SDS011;43162;51.040;18.244;2022-11-25T15:37:46;59.00;;;29.20;;
57327;SDS011;43162;51.040;18.244;2022-11-25T15:40:29;61.80;;;28.30;;
57327;SDS011;43162;51.040;18.244;2022-11-25T15:42:56;56.70;;;27.80;;
57327;SDS011;43162;51.040;18.244;2022-11-25T15:45:22;60.40;;;27.60;;
57327;SDS011;43162;51.040;18.244;2022-11-25T15:47:47;56.20;;;27.40;;
57327;SDS011;43162;51.040;18.244;2022-11-25T15:50:22;57.30;;;27.80;;
57327;SDS011;43162;51.040;18.244;2022-11-25T15:52:50;62.20;;;26.90;;
57327;SDS011;43162;51.040;18.244;2022-11-25T15:58:07;53.00;;;26.50;;
57327;SDS011;43162;51.040;18.244;2022-11-25T16:00:37;61.50;;;27.60;;
57327;SDS011;43162;51.040;18.244;2022-11-25T16:03:20;61.10;;;27.90;;